KHFD/HFD METAR and TAF weather

Enter ICAO airport designator
Station Type Date Time Source
KHFD METAR 2020/01/19 22:53 UTC NOAA

KHFD 192253Z 33007KT 10SM FEW060 02/M05 A2980 RMK AO2 SLP091 T00171050


Station Type Date Time Source
KHFD Decoded METAR 2020/01/19 22:53 UTC NOAA

HARTFORD-BRAINARD AIRPORT, CT, United States (KHFD) 41-44N 072-39W 4M
Jan 19, 2020 - 05:53 PM EST / 2020.01.19 2253 UTC
Wind: from the NNW (330 degrees) at 8 MPH (7 KT):0
Visibility: 10 mile(s):0
Sky conditions: mostly clear
Temperature: 35.1 F (1.7 C)
Dew Point: 23.0 F (-5.0 C)
Relative Humidity: 61%
Pressure (altimeter): 29.8 in. Hg (1009 hPa)
ob: KHFD 192253Z 33007KT 10SM FEW060 02/M05 A2980 RMK AO2 SLP091 T00171050
cycle: 23

Station Type Date Time Source
KHFD TAF UTC NOAA

Error!

Example: see airport list